createdAt,value
2023-10-07T00:02:01.685Z,88320.41
2023-10-07T00:04:30.560Z,88313.03
2023-10-07T00:06:57.902Z,88309.66
2023-10-07T00:09:25.373Z,88315.34
2023-10-07T00:11:53.067Z,88311.97
2023-10-07T00:14:20.585Z,88306.22
2023-10-07T00:16:48.110Z,88302.81
2023-10-07T00:19:15.599Z,88291.78
2023-10-07T00:21:43.271Z,88304.84
2023-10-07T00:24:10.771Z,88297.97
2023-10-07T00:26:38.399Z,88302.50
2023-10-07T00:29:05.889Z,88297.72
2023-10-07T00:31:33.346Z,88297.22
2023-10-07T00:34:02.096Z,88293.75
2023-10-07T00:36:30.521Z,88296.69
2023-10-07T00:38:58.216Z,88290.50
2023-10-07T00:41:25.575Z,88298.09
2023-10-07T00:43:52.912Z,88294.69
2023-10-07T00:46:20.954Z,88291.91
2023-10-07T00:48:49.282Z,88288.22
2023-10-07T00:51:17.446Z,88289.75
2023-10-07T00:53:45.723Z,88278.78
2023-10-07T00:56:14.875Z,88279.13
2023-10-07T00:58:43.714Z,88285.09
2023-10-07T01:01:11.382Z,88276.34
2023-10-07T01:03:39.003Z,88276.34
2023-10-07T01:06:06.739Z,88272.63
2023-10-07T01:08:34.233Z,88278.16
2023-10-07T01:11:02.875Z,88267.28
2023-10-07T01:13:30.689Z,88272.91
2023-10-07T01:15:58.716Z,88268.41
2023-10-07T01:18:26.169Z,88268.03
2023-10-07T01:20:53.580Z,88269.84
2023-10-07T01:23:21.700Z,88266.03
2023-10-07T01:25:49.222Z,88265.53
2023-10-07T01:28:19.168Z,88263.53
2023-10-07T01:30:50.623Z,88272.97
2023-10-07T01:33:18.175Z,88264.31
2023-10-07T01:35:45.510Z,88259.03
2023-10-07T01:38:13.025Z,88262.66
2023-10-07T01:40:40.578Z,88258.75
2023-10-07T01:43:08.021Z,88249.47
2023-10-07T01:45:38.264Z,88247.66
2023-10-07T01:48:06.501Z,88254.44
2023-10-07T01:50:45.762Z,88253.34
2023-10-07T01:53:14.052Z,88253.78
2023-10-07T01:55:43.244Z,88248.50
2023-10-07T01:58:14.538Z,88250.09
2023-10-07T02:00:46.901Z,88243.78
2023-10-07T02:03:17.207Z,88241.50
2023-10-07T02:05:45.726Z,88248.28
2023-10-07T02:08:13.626Z,88245.16
2023-10-07T02:10:42.442Z,88246.91
2023-10-07T02:13:14.109Z,88248.78
2023-10-07T02:15:44.592Z,88241.22
2023-10-07T02:18:12.879Z,88245.31
2023-10-07T02:20:40.334Z,88242.47
2023-10-07T02:23:08.033Z,88241.28
2023-10-07T02:25:35.495Z,88247.03
2023-10-07T02:28:02.845Z,88244.75
2023-10-07T02:30:30.277Z,88244.28
2023-10-07T02:32:57.653Z,88246.84
2023-10-07T02:35:25.195Z,88241.38
2023-10-07T02:37:53.401Z,88243.22
2023-10-07T02:40:20.860Z,88236.84
2023-10-07T02:42:48.383Z,88229.97
2023-10-07T02:45:15.855Z,88234.50
2023-10-07T02:47:43.288Z,88236.25
2023-10-07T02:50:11.073Z,88240.78
2023-10-07T02:52:39.062Z,88233.22
2023-10-07T02:55:08.683Z,88235.28
2023-10-07T02:57:36.559Z,88235.69
2023-10-07T03:04:39.612Z,88240.59
2023-10-07T03:07:07.739Z,88238.03
2023-10-07T03:09:35.503Z,88240.31
2023-10-07T03:12:03.240Z,88241.34
2023-10-07T03:14:30.945Z,88245.19
2023-10-07T03:16:58.695Z,88240.53
2023-10-07T03:19:27.034Z,88243.63
2023-10-07T03:21:54.975Z,88242.53
2023-10-07T03:24:23.939Z,88243.41
2023-10-07T03:26:52.070Z,88241.63
2023-10-07T03:29:19.808Z,88234.34
2023-10-07T03:31:47.697Z,88237.75
2023-10-07T03:34:16.586Z,88241.03
2023-10-07T03:36:44.373Z,88232.66
2023-10-07T03:39:14.001Z,88238.25
2023-10-07T03:41:42.440Z,88241.25
2023-10-07T03:44:10.413Z,88237.84
2023-10-07T03:46:38.945Z,88249.13
2023-10-07T03:49:06.717Z,88236.66
2023-10-07T03:51:36.795Z,88238.81
2023-10-07T03:54:05.133Z,88238.63
2023-10-07T03:56:33.067Z,88231.84
2023-10-07T03:59:01.016Z,88228.03
2023-10-07T04:01:28.789Z,88231.00
2023-10-07T04:03:57.536Z,88236.19
2023-10-07T04:06:26.743Z,88225.56
2023-10-07T04:08:58.795Z,88221.44
2023-10-07T04:11:27.748Z,88228.31
2023-10-07T04:13:56.953Z,88221.09
2023-10-07T04:16:26.107Z,88223.31
2023-10-07T04:18:58.755Z,88218.72
2023-10-07T04:21:26.871Z,88220.94
2023-10-07T04:23:57.235Z,88216.34
2023-10-07T04:26:25.936Z,88218.22
2023-10-07T04:28:57.329Z,88231.53
2023-10-07T04:31:25.643Z,88233.47
2023-10-07T04:33:53.596Z,88223.38
2023-10-07T04:36:21.596Z,88232.03
2023-10-07T04:38:49.760Z,88227.63
2023-10-07T04:41:17.759Z,88221.88
2023-10-07T04:43:45.659Z,88224.16
2023-10-07T04:46:13.559Z,88220.84
2023-10-07T04:48:41.320Z,88228.41
2023-10-07T04:51:09.069Z,88242.72
2023-10-07T04:53:36.755Z,88236.34
2023-10-07T04:56:05.352Z,88232.97
2023-10-07T04:58:33.889Z,88243.41
2023-10-07T05:01:02.025Z,88243.16
2023-10-07T05:03:29.888Z,88248.00
2023-10-07T05:05:57.568Z,88242.22
2023-10-07T05:08:25.797Z,88239.53
2023-10-07T05:10:53.847Z,88242.88
2023-10-07T05:13:23.030Z,88256.44
2023-10-07T05:15:51.246Z,88249.03
2023-10-07T05:18:19.174Z,88249.44
2023-10-07T05:20:47.298Z,88253.50
2023-10-07T05:23:16.015Z,88252.72
2023-10-07T05:25:44.127Z,88257.56
2023-10-07T05:28:12.493Z,88258.94
2023-10-07T05:30:41.551Z,88260.00
2023-10-07T05:33:09.385Z,88265.69
2023-10-07T05:35:37.506Z,88261.97
2023-10-07T05:38:06.206Z,88266.03
2023-10-07T05:40:34.120Z,88271.38
2023-10-07T05:43:01.816Z,88267.91
2023-10-07T05:45:29.510Z,88265.50
2023-10-07T05:47:57.397Z,88264.66
2023-10-07T05:50:25.587Z,88271.47
2023-10-07T05:52:54.557Z,88274.31
2023-10-07T05:55:22.338Z,88285.03
2023-10-07T05:57:50.054Z,88276.97
2023-10-07T06:00:18.106Z,88285.34
2023-10-07T06:02:46.052Z,88279.41
2023-10-07T06:05:14.012Z,88273.75
2023-10-07T06:07:41.807Z,88274.84
2023-10-07T06:10:12.583Z,88283.81
2023-10-07T06:12:40.250Z,88281.38
2023-10-07T06:15:08.791Z,88278.28
2023-10-07T06:17:39.307Z,88282.09
2023-10-07T06:20:08.253Z,88282.59
2023-10-07T06:22:36.297Z,88278.38
2023-10-07T06:25:04.099Z,88279.16
2023-10-07T06:27:31.966Z,88269.06
2023-10-07T06:30:00.550Z,88265.50
2023-10-07T06:32:28.292Z,88274.78
2023-10-07T06:34:56.185Z,88273.81
2023-10-07T06:37:24.406Z,88286.81
2023-10-07T06:39:52.510Z,88283.03
2023-10-07T06:42:20.403Z,88286.66
2023-10-07T06:44:48.200Z,88284.63
2023-10-07T06:47:15.943Z,88292.03
2023-10-07T06:49:43.721Z,88286.66
2023-10-07T06:52:11.485Z,88286.94
2023-10-07T06:54:40.246Z,88286.81
2023-10-07T06:57:12.648Z,88290.38
2023-10-07T06:59:40.542Z,88288.06
2023-10-07T07:02:08.393Z,88284.56
2023-10-07T07:04:36.270Z,88280.28
2023-10-07T07:07:04.181Z,88281.63
2023-10-07T07:09:31.951Z,88282.63
2023-10-07T07:12:01.660Z,88281.22
2023-10-07T07:14:30.009Z,88286.22
2023-10-07T07:16:59.111Z,88280.47
2023-10-07T07:19:26.859Z,88284.84
2023-10-07T07:22:00.701Z,88287.25
2023-10-07T07:24:29.768Z,88296.91
2023-10-07T07:26:57.495Z,88295.50
2023-10-07T07:29:25.304Z,88286.31
2023-10-07T07:31:53.231Z,88286.50
2023-10-07T07:34:21.491Z,88280.22
2023-10-07T07:36:49.556Z,88281.53
2023-10-07T07:39:17.299Z,88287.63
2023-10-07T07:41:45.040Z,88285.09
2023-10-07T07:44:13.441Z,88289.09
2023-10-07T07:46:41.761Z,88277.94
2023-10-07T07:49:09.562Z,88273.56
2023-10-07T07:51:37.830Z,88284.28
2023-10-07T07:54:07.073Z,88270.13
2023-10-07T07:56:35.847Z,88269.84
2023-10-07T07:59:06.668Z,88272.63
2023-10-07T08:01:34.463Z,88271.63
2023-10-07T08:04:02.369Z,88274.00
2023-10-07T08:06:30.827Z,88268.81
2023-10-07T08:08:58.776Z,88269.22
2023-10-07T08:11:26.535Z,88266.69
2023-10-07T08:13:53.971Z,88262.25
2023-10-07T08:16:21.654Z,88266.91
2023-10-07T08:18:50.111Z,88264.69
2023-10-07T08:21:17.849Z,88259.88
2023-10-07T08:23:45.665Z,88264.88
2023-10-07T08:26:13.118Z,88262.31
2023-10-07T08:28:46.953Z,88262.09
2023-10-07T08:31:16.079Z,88268.94
2023-10-07T08:33:43.817Z,88262.22
2023-10-07T08:36:11.515Z,88252.84
2023-10-07T08:38:39.338Z,88256.28
2023-10-07T08:41:07.013Z,88262.81
2023-10-07T08:43:37.533Z,88250.41
2023-10-07T08:46:06.332Z,88257.31
2023-10-07T08:48:34.730Z,88250.94
2023-10-07T08:51:03.416Z,88256.66
2023-10-07T08:53:31.520Z,88247.28
2023-10-07T08:55:59.076Z,88251.88
2023-10-07T08:58:30.632Z,88243.59
2023-10-07T09:00:58.664Z,88240.66
2023-10-07T09:03:26.947Z,88239.56
2023-10-07T09:05:54.514Z,88236.63
2023-10-07T09:08:21.951Z,88237.03
2023-10-07T09:10:51.918Z,88235.59
2023-10-07T09:13:19.315Z,88239.03
2023-10-07T09:15:52.227Z,88239.06
2023-10-07T09:18:24.660Z,88238.00
2023-10-07T09:20:52.712Z,88234.59
2023-10-07T09:23:20.493Z,88225.16
2023-10-07T09:25:48.828Z,88219.50
2023-10-07T09:28:17.656Z,88220.28
2023-10-07T09:30:45.228Z,88216.84
2023-10-07T09:33:16.184Z,88221.41
2023-10-07T09:35:52.045Z,88219.13
2023-10-07T09:38:19.425Z,88212.75
2023-10-07T09:40:47.418Z,88218.44
2023-10-07T09:43:15.231Z,88218.81
2023-10-07T09:45:44.617Z,88212.00
2023-10-07T09:48:12.133Z,88204.78
2023-10-07T09:50:45.972Z,88211.59
2023-10-07T09:53:50.888Z,88201.72
2023-10-07T09:57:00.894Z,88202.09
2023-10-07T10:00:03.854Z,88185.31
2023-10-07T10:02:49.791Z,88198.63
2023-10-07T10:05:33.928Z,88194.03
2023-10-07T10:08:10.124Z,88195.94
2023-10-07T10:10:41.124Z,88190.97
2023-10-07T10:13:08.616Z,88198.91
2023-10-07T10:15:38.461Z,88188.97
2023-10-07T10:18:08.486Z,88184.00
2023-10-07T10:20:37.759Z,88182.78
2023-10-07T10:23:05.212Z,88171.72
2023-10-07T10:25:33.041Z,88168.97
2023-10-07T10:28:01.229Z,88167.44
2023-10-07T10:30:28.846Z,88167.34
2023-10-07T10:33:02.047Z,88158.56
2023-10-07T10:35:31.255Z,88160.00
2023-10-07T10:37:59.159Z,88153.47
2023-10-07T10:40:27.059Z,88158.72
2023-10-07T10:42:54.816Z,88145.66
2023-10-07T10:45:25.145Z,88138.25
2023-10-07T10:47:55.047Z,88141.38
2023-10-07T10:50:24.980Z,88131.50
2023-10-07T10:52:56.818Z,88130.75
2023-10-07T10:55:25.148Z,88124.81
2023-10-07T10:57:53.754Z,88120.81
2023-10-07T11:00:21.881Z,88121.25
2023-10-07T11:02:52.666Z,88119.84
2023-10-07T11:05:20.966Z,88117.50
2023-10-07T11:07:50.506Z,88100.63
2023-10-07T11:10:19.955Z,88107.41
2023-10-07T11:12:50.021Z,88108.72
2023-10-07T11:15:18.016Z,88100.63
2023-10-07T11:18:01.879Z,88096.28
2023-10-07T11:20:36.047Z,88090.25
2023-10-07T11:23:04.101Z,88091.53
2023-10-07T11:25:31.509Z,88080.16
2023-10-07T11:27:58.904Z,88084.19
2023-10-07T11:30:26.695Z,88073.75
2023-10-07T11:32:54.459Z,88075.56
2023-10-07T11:35:24.366Z,88077.00
2023-10-07T11:37:53.633Z,88073.06
2023-10-07T11:40:21.188Z,88069.50
2023-10-07T11:42:48.739Z,88065.69
2023-10-07T11:45:16.314Z,88055.03
2023-10-07T11:47:44.858Z,88050.44
2023-10-07T11:50:12.252Z,88058.06
2023-10-07T11:52:39.733Z,88048.06
2023-10-07T11:55:07.366Z,88047.53
2023-10-07T11:57:35.535Z,88055.47
2023-10-07T12:00:23.285Z,88051.78
2023-10-07T12:02:52.068Z,88045.59
2023-10-07T12:05:22.291Z,88042.13
2023-10-07T12:07:50.912Z,88044.56
2023-10-07T12:10:19.079Z,88047.19
2023-10-07T12:12:47.643Z,88044.72
2023-10-07T12:15:15.316Z,88045.41
2023-10-07T12:17:46.534Z,88040.53
2023-10-07T12:20:14.294Z,88040.16
2023-10-07T12:22:44.313Z,88038.78
2023-10-07T12:25:12.347Z,88041.72
2023-10-07T12:27:40.962Z,88046.22
2023-10-07T12:30:09.671Z,88040.38
2023-10-07T12:32:37.119Z,88044.66
2023-10-07T12:35:05.545Z,88040.81
2023-10-07T12:37:35.474Z,88039.22
2023-10-07T12:40:04.043Z,88042.06
2023-10-07T12:42:33.126Z,88044.38
2023-10-07T12:45:00.900Z,88036.97
2023-10-07T12:47:30.866Z,88035.19
2023-10-07T12:49:58.692Z,88037.06
2023-10-07T12:52:26.179Z,88051.94
2023-10-07T12:54:54.300Z,88051.88
2023-10-07T12:57:21.679Z,88050.31
2023-10-07T12:59:49.409Z,88053.03
2023-10-07T13:02:16.803Z,88056.88
2023-10-07T13:04:45.280Z,88049.56
2023-10-07T13:07:13.229Z,88056.69
2023-10-07T13:09:42.625Z,88055.03
2023-10-07T13:12:11.518Z,88053.34
2023-10-07T13:14:39.518Z,88050.69
2023-10-07T13:17:06.923Z,88054.44
2023-10-07T13:19:35.201Z,88050.09
2023-10-07T13:22:03.557Z,88046.50
2023-10-07T13:24:31.188Z,88050.53
2023-10-07T13:26:58.508Z,88044.19
2023-10-07T13:29:28.701Z,88045.97
2023-10-07T13:31:56.093Z,88048.22
2023-10-07T13:34:23.665Z,88038.00
2023-10-07T13:36:51.032Z,88042.22
2023-10-07T13:39:18.366Z,88036.63
2023-10-07T13:41:48.527Z,88044.75
2023-10-07T13:44:17.981Z,88042.34
2023-10-07T13:46:46.983Z,88032.53
2023-10-07T13:49:16.666Z,88027.75
2023-10-07T13:51:46.439Z,88023.47
2023-10-07T13:54:15.236Z,88030.44
2023-10-07T13:56:43.202Z,88030.75
2023-10-07T13:59:10.980Z,88026.84
2023-10-07T14:01:38.802Z,88026.66
2023-10-07T14:04:07.026Z,88030.63
2023-10-07T14:06:35.082Z,88024.13
2023-10-07T14:09:03.110Z,88030.31
2023-10-07T14:11:31.040Z,88031.53
2023-10-07T14:13:58.807Z,88034.06
2023-10-07T14:16:26.620Z,88025.66
2023-10-07T14:18:54.714Z,88030.63
2023-10-07T14:21:22.625Z,88037.41
2023-10-07T14:23:50.463Z,88034.22
2023-10-07T14:26:18.258Z,88028.81
2023-10-07T14:28:46.494Z,88030.31
2023-10-07T14:31:16.888Z,88035.44
2023-10-07T14:33:45.358Z,88032.22
2023-10-07T14:36:13.302Z,88031.03
2023-10-07T14:38:42.636Z,88031.91
2023-10-07T14:41:11.225Z,88036.44
2023-10-07T14:43:39.259Z,88040.50
2023-10-07T14:46:08.126Z,88043.34
2023-10-07T14:48:35.975Z,88037.78
2023-10-07T14:51:08.042Z,88039.31
2023-10-07T14:53:36.055Z,88039.19
2023-10-07T14:56:11.620Z,88037.03
2023-10-07T14:58:39.326Z,88038.19
2023-10-07T15:05:07.851Z,88042.78
2023-10-07T15:07:35.592Z,88043.16
2023-10-07T15:10:03.421Z,88044.22
2023-10-07T15:12:30.961Z,88043.66
2023-10-07T15:14:58.301Z,88038.47
2023-10-07T15:17:26.049Z,88043.94
2023-10-07T15:19:54.254Z,88046.31
2023-10-07T15:22:22.131Z,88036.59
2023-10-07T15:24:49.797Z,88046.78
2023-10-07T15:27:17.754Z,88046.50
2023-10-07T15:29:45.845Z,88056.72
2023-10-07T15:32:13.616Z,88057.50
2023-10-07T15:34:41.591Z,88064.19
2023-10-07T15:37:09.629Z,88060.06
2023-10-07T15:39:37.981Z,88070.81
2023-10-07T15:42:05.441Z,88072.41
2023-10-07T15:44:33.027Z,88083.22
2023-10-07T15:47:00.969Z,88077.03
2023-10-07T15:49:35.900Z,88087.75
2023-10-07T15:52:04.352Z,88083.06
2023-10-07T15:54:31.715Z,88081.63
2023-10-07T15:56:59.256Z,88087.72
2023-10-07T15:59:26.706Z,88084.63
2023-10-07T16:01:54.207Z,88089.84
2023-10-07T16:04:21.867Z,88101.19
2023-10-07T16:06:49.348Z,88097.91
2023-10-07T16:09:17.116Z,88093.38
2023-10-07T16:11:47.746Z,88097.69
2023-10-07T16:14:16.226Z,88102.81
2023-10-07T16:16:44.088Z,88112.97
2023-10-07T16:19:12.038Z,88112.69
2023-10-07T16:21:42.119Z,88119.06
2023-10-07T16:24:10.093Z,88121.47
2023-10-07T16:26:39.024Z,88120.50
2023-10-07T16:29:08.884Z,88120.31
2023-10-07T16:31:39.710Z,88125.16
2023-10-07T16:34:07.300Z,88122.25
2023-10-07T16:36:34.854Z,88121.97
2023-10-07T16:39:04.298Z,88127.41
2023-10-07T16:41:31.871Z,88131.06
2023-10-07T16:43:59.713Z,88130.84
2023-10-07T16:46:31.087Z,88130.91
2023-10-07T16:48:59.197Z,88137.50
2023-10-07T16:51:26.890Z,88144.50
2023-10-07T16:53:54.421Z,88137.41
2023-10-07T16:56:24.524Z,88139.03
2023-10-07T16:58:52.533Z,88147.16
2023-10-07T17:01:21.684Z,88142.66
2023-10-07T17:03:49.517Z,88140.50
2023-10-07T17:06:20.157Z,88157.84
2023-10-07T17:08:53.460Z,88169.13
2023-10-07T17:11:21.549Z,88166.91
2023-10-07T17:13:50.058Z,88174.63
2023-10-07T17:16:20.920Z,88174.75
2023-10-07T17:18:48.285Z,88175.72
2023-10-07T17:21:15.790Z,88181.56
2023-10-07T17:23:43.293Z,88177.47
2023-10-07T17:26:11.086Z,88185.91
2023-10-07T17:28:38.581Z,88188.63
2023-10-07T17:31:12.290Z,88200.56
2023-10-07T17:33:39.951Z,88201.03
2023-10-07T17:36:08.735Z,88206.06
2023-10-07T17:38:37.633Z,88206.50
2023-10-07T17:41:05.177Z,88205.44
2023-10-07T17:43:33.044Z,88206.28
2023-10-07T17:46:00.874Z,88215.59
2023-10-07T17:48:28.516Z,88220.66
2023-10-07T17:50:55.984Z,88221.88
2023-10-07T17:53:23.527Z,88230.34
2023-10-07T17:55:51.916Z,88226.19
2023-10-07T17:58:25.257Z,88228.16
2023-10-07T18:00:53.247Z,88230.53
2023-10-07T18:03:20.914Z,88245.84
2023-10-07T18:05:51.138Z,88247.41
2023-10-07T18:08:21.252Z,88257.78
2023-10-07T18:10:52.096Z,88248.69
2023-10-07T18:13:19.650Z,88250.28
2023-10-07T18:15:47.113Z,88259.06
2023-10-07T18:18:15.224Z,88262.19
2023-10-07T18:20:42.602Z,88274.75
2023-10-07T18:23:10.211Z,88266.81
2023-10-07T18:25:37.678Z,88273.31
2023-10-07T18:28:05.325Z,88274.09
2023-10-07T18:30:32.791Z,88275.97
2023-10-07T18:33:00.705Z,88284.41
2023-10-07T18:35:28.138Z,88291.66
2023-10-07T18:37:55.567Z,88301.22
2023-10-07T18:40:22.949Z,88290.19
2023-10-07T18:42:50.408Z,88297.88
2023-10-07T18:45:17.971Z,88306.63
2023-10-07T18:47:45.393Z,88312.34
2023-10-07T18:50:13.130Z,88299.81
2023-10-07T18:52:40.901Z,88306.66
2023-10-07T18:55:09.272Z,88296.78
2023-10-07T18:57:40.569Z,88301.00
2023-10-07T19:00:09.688Z,88297.16
2023-10-07T19:02:37.217Z,88297.94
2023-10-07T19:05:05.331Z,88303.25
2023-10-07T19:07:32.729Z,88300.59
2023-10-07T19:10:00.158Z,88310.50
2023-10-07T19:12:27.758Z,88304.41
2023-10-07T19:14:55.146Z,88309.34
2023-10-07T19:17:22.591Z,88306.69
2023-10-07T19:19:50.120Z,88293.78
2023-10-07T19:22:17.590Z,88304.44
2023-10-07T19:24:45.009Z,88301.41
2023-10-07T19:27:12.409Z,88298.34
2023-10-07T19:29:39.973Z,88302.56
2023-10-07T19:32:07.452Z,88304.88
2023-10-07T19:34:35.050Z,88304.09
2023-10-07T19:37:02.328Z,88309.47
2023-10-07T19:39:42.424Z,88299.94
2023-10-07T19:42:12.335Z,88299.59
2023-10-07T19:44:40.010Z,88298.06
2023-10-07T19:47:07.687Z,88300.75
2023-10-07T19:49:37.828Z,88309.88
2023-10-07T19:52:06.025Z,88309.91
2023-10-07T19:54:33.756Z,88303.84
2023-10-07T19:57:01.141Z,88301.53
2023-10-07T19:59:28.519Z,88303.44
2023-10-07T20:01:55.967Z,88295.47
2023-10-07T20:04:23.573Z,88305.34
2023-10-07T20:06:50.941Z,88292.78
2023-10-07T20:09:18.261Z,88304.97
2023-10-07T20:11:48.277Z,88308.78
2023-10-07T20:14:16.103Z,88300.81
2023-10-07T20:16:43.667Z,88304.25
2023-10-07T20:19:11.478Z,88306.94
2023-10-07T20:21:39.082Z,88303.88
2023-10-07T20:24:07.152Z,88296.66
2023-10-07T20:26:34.742Z,88306.56
2023-10-07T20:29:02.228Z,88293.66
2023-10-07T20:31:29.722Z,88299.72
2023-10-07T20:33:57.642Z,88309.22
2023-10-07T20:36:25.290Z,88307.72
2023-10-07T20:38:53.512Z,88305.81
2023-10-07T20:41:20.983Z,88305.78
2023-10-07T20:43:48.337Z,88313.00
2023-10-07T20:46:15.933Z,88300.09
2023-10-07T20:48:43.406Z,88299.72
2023-10-07T20:51:13.401Z,88300.09
2023-10-07T20:53:43.666Z,88305.06
2023-10-07T20:56:13.369Z,88306.19
2023-10-07T20:58:42.182Z,88307.69
2023-10-07T21:01:21.701Z,88303.91
2023-10-07T21:03:54.381Z,88302.00
2023-10-07T21:06:23.025Z,88308.09
2023-10-07T21:08:53.296Z,88307.34
2023-10-07T21:11:21.265Z,88303.16
2023-10-07T21:13:48.915Z,88301.25
2023-10-07T21:16:16.692Z,88297.44
2023-10-07T21:18:44.146Z,88294.41
2023-10-07T21:21:13.428Z,88304.69
2023-10-07T21:23:44.969Z,88303.13
2023-10-07T21:26:20.863Z,88302.38
2023-10-07T21:28:54.541Z,88295.53
2023-10-07T21:31:22.057Z,88298.22
2023-10-07T21:33:49.631Z,88302.75
2023-10-07T21:36:17.329Z,88303.91
2023-10-07T21:38:45.199Z,88296.31
2023-10-07T21:41:13.237Z,88297.44
2023-10-07T21:43:40.753Z,88296.69
2023-10-07T21:46:08.389Z,88294.78
2023-10-07T21:48:35.689Z,88305.03
2023-10-07T21:51:11.079Z,88300.84
2023-10-07T21:53:38.830Z,88297.78
2023-10-07T21:56:12.482Z,88297.03
2023-10-07T21:58:40.015Z,88300.06
2023-10-07T22:01:07.585Z,88294.38
2023-10-07T22:03:41.281Z,88292.09
2023-10-07T22:06:08.713Z,88292.84
2023-10-07T22:08:36.240Z,88295.88
2023-10-07T22:11:03.734Z,88296.28
2023-10-07T22:13:31.255Z,88295.50
2023-10-07T22:15:58.875Z,88293.97
2023-10-07T22:18:27.673Z,88286.78
2023-10-07T22:20:55.436Z,88292.81
2023-10-07T22:23:24.255Z,88284.09
2023-10-07T22:25:52.826Z,88271.94
2023-10-07T22:28:21.643Z,88270.06
2023-10-07T22:30:50.934Z,88272.72
2023-10-07T22:33:22.562Z,88273.47
2023-10-07T22:35:52.020Z,88273.47
2023-10-07T22:38:20.089Z,88269.66
2023-10-07T22:40:50.323Z,88267.34
2023-10-07T22:43:18.876Z,88265.09
2023-10-07T22:45:48.254Z,88263.22
2023-10-07T22:48:24.825Z,88263.22
2023-10-07T22:50:55.607Z,88262.84
2023-10-07T22:53:24.192Z,88259.81
2023-10-07T22:55:51.589Z,88260.19
2023-10-07T22:58:20.113Z,88247.69
2023-10-07T23:00:51.958Z,88252.22
2023-10-07T23:03:20.232Z,88241.22
2023-10-07T23:05:49.179Z,88240.81
2023-10-07T23:08:17.679Z,88247.28
2023-10-07T23:10:45.118Z,88250.31
2023-10-07T23:13:12.517Z,88241.59
2023-10-07T23:15:40.603Z,88233.63
2023-10-07T23:18:08.238Z,88233.25
2023-10-07T23:20:35.976Z,88238.56
2023-10-07T23:23:03.396Z,88237.41
2023-10-07T23:25:32.145Z,88234.38
2023-10-07T23:27:59.483Z,88227.16
2023-10-07T23:30:27.076Z,88232.84
2023-10-07T23:32:56.815Z,88236.28
2023-10-07T23:35:24.592Z,88233.63
2023-10-07T23:37:52.967Z,88229.44
2023-10-07T23:40:21.476Z,88225.66
2023-10-07T23:42:48.796Z,88230.19
2023-10-07T23:45:16.631Z,88236.25
2023-10-07T23:47:44.094Z,88227.91
2023-10-07T23:50:11.844Z,88225.25
2023-10-07T23:52:39.229Z,88229.41
2023-10-07T23:55:07.170Z,88220.28
2023-10-07T23:57:34.541Z,88225.22
